Time;durP1;ratioP1;P1;durP2;ratioP2;P2;SDS_P1;SDS_P2;PMS_P1;PMS_P2;Temp;Humidity;BMP_temperature;BMP_pressure;BME280_temperature;BME280_humidity;BME280_pressure;Samples;Min_cycle;Max_cycle;Signal;HPM_P1;HPM_P2
2020/12/30 00:00:27;;;;;;;10.20;7.05;;;;;;;;;;6178955;23;20523;-75
2020/12/30 00:02:53;;;;;;;7.28;6.03;;;;;;;;;;6181174;23;20021;-72
2020/12/30 00:05:19;;;;;;;13.43;6.40;;;;;;;;;;6155898;23;20104;-74
2020/12/30 00:07:46;;;;;;;10.88;6.25;;;;;;;;;;6181903;23;20484;-74
2020/12/30 00:10:13;;;;;;;9.77;5.85;;;;;;;;;;6181304;23;20048;-75
2020/12/30 00:12:41;;;;;;;9.27;5.97;;;;;;;;;;6181478;23;20027;-73
2020/12/30 00:15:11;;;;;;;9.15;6.10;;;;;;;;;;6181967;23;20028;-75
2020/12/30 00:17:39;;;;;;;8.18;5.82;;;;;;;;;;6178372;23;20033;-83
2020/12/30 00:20:07;;;;;;;8.77;5.85;;;;;;;;;;6180189;23;20056;-82
2020/12/30 00:22:33;;;;;;;8.65;6.32;;;;;;;;;;6181859;23;20020;-83
2020/12/30 00:24:59;;;;;;;7.78;5.63;;;;;;;;;;6155800;23;20513;-81
2020/12/30 00:27:25;;;;;;;10.85;5.80;;;;;;;;;;6182368;23;20390;-84
2020/12/30 00:29:52;;;;;;;8.85;5.57;;;;;;;;;;6181827;23;20029;-81
2020/12/30 00:32:18;;;;;;;8.70;5.25;;;;;;;;;;6183081;23;20093;-83
2020/12/30 00:34:45;;;;;;;9.20;5.70;;;;;;;;;;6181891;23;20027;-82
2020/12/30 00:37:11;;;;;;;8.45;5.43;;;;;;;;;;6182111;23;20111;-82
2020/12/30 00:39:39;;;;;;;8.32;6.20;;;;;;;;;;6181911;23;20669;-83
2020/12/30 00:42:06;;;;;;;9.27;6.10;;;;;;;;;;6183462;23;20096;-85
2020/12/30 00:44:32;;;;;;;9.98;6.38;;;;;;;;;;6184594;23;20386;-85
2020/12/30 00:46:58;;;;;;;7.47;5.75;;;;;;;;;;6182840;23;20020;-82
2020/12/30 00:49:25;;;;;;;9.13;5.35;;;;;;;;;;6182311;23;20468;-82
2020/12/30 00:51:52;;;;;;;8.60;5.75;;;;;;;;;;6183916;23;20453;-81
2020/12/30 00:54:19;;;;;;;9.25;5.05;;;;;;;;;;6182966;23;20021;-82
2020/12/30 00:56:46;;;;;;;8.38;5.80;;;;;;;;;;6184039;23;20341;-79
2020/12/30 00:59:12;;;;;;;9.95;5.68;;;;;;;;;;6183699;23;20035;-82
2020/12/30 01:01:38;;;;;;;10.63;6.68;;;;;;;;;;6183637;23;20447;-82
2020/12/30 01:04:04;;;;;;;7.10;5.28;;;;;;;;;;6154068;23;20476;-82
2020/12/30 01:06:31;;;;;;;10.60;5.55;;;;;;;;;;6182778;23;20028;-79
2020/12/30 01:08:57;;;;;;;7.38;5.57;;;;;;;;;;6182784;23;20056;-80
2020/12/30 01:11:24;;;;;;;6.70;5.15;;;;;;;;;;6184547;23;20021;-80
2020/12/30 01:13:50;;;;;;;8.77;6.05;;;;;;;;;;6184387;23;20100;-80
2020/12/30 01:16:16;;;;;;;8.10;5.20;;;;;;;;;;6183542;23;20028;-80
2020/12/30 01:18:42;;;;;;;10.55;6.32;;;;;;;;;;6182892;23;20047;-81
2020/12/30 01:21:08;;;;;;;9.02;5.68;;;;;;;;;;6182785;23;20025;-81
2020/12/30 01:23:34;;;;;;;7.28;5.43;;;;;;;;;;6184983;23;20021;-81
2020/12/30 01:26:00;;;;;;;8.88;5.47;;;;;;;;;;6183465;23;20095;-82
2020/12/30 01:28:26;;;;;;;8.40;5.75;;;;;;;;;;6156941;23;20348;-79
2020/12/30 01:30:52;;;;;;;10.57;6.40;;;;;;;;;;6182888;23;20528;-80
2020/12/30 01:33:19;;;;;;;8.73;5.45;;;;;;;;;;6184296;23;20120;-81
2020/12/30 01:35:45;;;;;;;8.52;5.45;;;;;;;;;;6182453;23;20096;-83
2020/12/30 01:38:11;;;;;;;10.35;5.88;;;;;;;;;;6182346;23;20115;-84
2020/12/30 01:40:37;;;;;;;8.48;5.35;;;;;;;;;;6184497;23;20461;-84
2020/12/30 01:43:03;;;;;;;9.52;5.65;;;;;;;;;;6183726;23;20048;-84
2020/12/30 01:45:30;;;;;;;7.70;5.03;;;;;;;;;;6179897;23;20029;-81
2020/12/30 01:47:56;;;;;;;8.20;5.45;;;;;;;;;;6182061;23;20024;-83
2020/12/30 01:50:22;;;;;;;7.85;5.07;;;;;;;;;;6184075;23;20469;-83
2020/12/30 01:52:49;;;;;;;9.07;5.43;;;;;;;;;;6183769;23;20027;-83
2020/12/30 01:55:16;;;;;;;9.43;4.93;;;;;;;;;;6183510;23;20398;-84
2020/12/30 01:57:42;;;;;;;8.57;5.90;;;;;;;;;;6180624;23;20051;-83
2020/12/30 02:00:09;;;;;;;8.20;5.60;;;;;;;;;;6182432;23;20028;-83
2020/12/30 02:02:37;;;;;;;8.13;5.40;;;;;;;;;;6183326;23;20063;-83
2020/12/30 02:05:06;;;;;;;6.63;4.72;;;;;;;;;;6182856;23;20021;-84
2020/12/30 02:07:33;;;;;;;6.60;4.85;;;;;;;;;;6184150;23;20452;-82
2020/12/30 02:10:02;;;;;;;7.40;4.90;;;;;;;;;;6184458;23;20025;-83
2020/12/30 02:12:28;;;;;;;8.02;5.00;;;;;;;;;;6182252;23;20023;-83
2020/12/30 02:14:57;;;;;;;7.90;4.85;;;;;;;;;;6184487;23;20028;-83
2020/12/30 02:17:23;;;;;;;7.73;4.50;;;;;;;;;;6183119;23;20028;-83
2020/12/30 02:19:49;;;;;;;8.20;4.95;;;;;;;;;;6182851;23;20100;-83
2020/12/30 02:22:23;;;;;;;9.90;5.25;;;;;;;;;;6182082;23;20023;-84
2020/12/30 02:24:49;;;;;;;8.40;5.20;;;;;;;;;;6183087;23;20096;-83
2020/12/30 02:27:15;;;;;;;6.63;5.00;;;;;;;;;;6183373;23;20411;-82
2020/12/30 02:29:41;;;;;;;7.13;5.03;;;;;;;;;;6182998;23;21016;-83
2020/12/30 02:32:07;;;;;;;6.75;4.80;;;;;;;;;;6182373;23;20021;-80
2020/12/30 02:34:34;;;;;;;6.95;4.32;;;;;;;;;;6183550;23;20025;-80
2020/12/30 02:37:00;;;;;;;7.05;4.65;;;;;;;;;;6182968;23;20021;-78
2020/12/30 02:39:26;;;;;;;6.70;4.55;;;;;;;;;;6184098;23;20025;-77
2020/12/30 02:41:52;;;;;;;8.30;4.80;;;;;;;;;;6183202;23;20096;-78
2020/12/30 02:44:18;;;;;;;6.65;5.22;;;;;;;;;;6182949;23;20060;-80
2020/12/30 02:46:44;;;;;;;7.97;4.88;;;;;;;;;;6183981;23;20096;-80
2020/12/30 02:49:10;;;;;;;7.30;4.57;;;;;;;;;;6181637;23;20017;-81
2020/12/30 02:51:40;;;;;;;7.32;4.38;;;;;;;;;;6183596;23;20025;-84
2020/12/30 02:54:06;;;;;;;8.85;4.60;;;;;;;;;;6183572;23;20100;-83
2020/12/30 02:56:32;;;;;;;6.07;4.28;;;;;;;;;;6183346;23;20052;-84
2020/12/30 02:58:58;;;;;;;7.78;4.82;;;;;;;;;;6182804;23;20059;-82
2020/12/30 03:01:25;;;;;;;6.10;4.72;;;;;;;;;;6183178;23;20056;-82
2020/12/30 03:03:51;;;;;;;6.45;3.92;;;;;;;;;;6182426;23;20031;-79
2020/12/30 03:06:22;;;;;;;6.70;4.50;;;;;;;;;;6182427;23;20056;-79
2020/12/30 03:08:49;;;;;;;7.57;5.28;;;;;;;;;;6182009;23;20532;-80
2020/12/30 03:11:15;;;;;;;7.07;4.63;;;;;;;;;;6183023;23;20116;-81
2020/12/30 03:13:41;;;;;;;6.25;4.07;;;;;;;;;;6181713;23;20025;-81
2020/12/30 03:16:07;;;;;;;7.57;4.80;;;;;;;;;;6183345;23;20124;-81
2020/12/30 03:18:33;;;;;;;6.10;3.85;;;;;;;;;;6182144;23;20412;-83
2020/12/30 03:20:59;;;;;;;7.63;4.63;;;;;;;;;;6183579;23;20120;-83
2020/12/30 03:23:25;;;;;;;8.15;4.72;;;;;;;;;;6184374;23;20457;-83
2020/12/30 03:25:51;;;;;;;5.60;4.15;;;;;;;;;;6183685;23;20025;-86
2020/12/30 03:28:18;;;;;;;8.48;5.18;;;;;;;;;;6157674;23;20024;-81
2020/12/30 03:30:44;;;;;;;5.32;3.60;;;;;;;;;;6182352;23;20024;-82
2020/12/30 03:33:10;;;;;;;6.13;4.28;;;;;;;;;;6183682;23;20052;-80
2020/12/30 03:35:36;;;;;;;7.22;4.10;;;;;;;;;;6182717;23;20021;-82
2020/12/30 03:38:03;;;;;;;4.95;3.55;;;;;;;;;;6155298;23;20031;-81
2020/12/30 03:40:30;;;;;;;6.60;3.90;;;;;;;;;;6182683;23;20028;-81
2020/12/30 03:42:56;;;;;;;5.57;3.92;;;;;;;;;;6183542;23;20017;-77
2020/12/30 03:45:22;;;;;;;7.05;4.30;;;;;;;;;;6181638;23;20025;-80
2020/12/30 03:47:48;;;;;;;6.80;3.92;;;;;;;;;;6178535;23;20023;-79
2020/12/30 03:50:14;;;;;;;6.72;3.83;;;;;;;;;;6181059;23;20096;-79
2020/12/30 03:52:41;;;;;;;6.55;4.03;;;;;;;;;;6157169;23;20027;-82
2020/12/30 03:55:07;;;;;;;7.45;4.32;;;;;;;;;;6182997;23;20024;-82
2020/12/30 03:57:33;;;;;;;6.65;3.92;;;;;;;;;;6182113;23;20047;-82
2020/12/30 03:59:59;;;;;;;9.35;4.65;;;;;;;;;;6181867;23;20100;-83
2020/12/30 04:02:25;;;;;;;6.70;4.03;;;;;;;;;;6182299;23;20048;-82
2020/12/30 04:04:52;;;;;;;5.00;3.70;;;;;;;;;;6156481;23;20497;-84
2020/12/30 04:07:19;;;;;;;6.28;4.28;;;;;;;;;;6181422;23;20352;-84
2020/12/30 04:09:45;;;;;;;6.25;3.78;;;;;;;;;;6181311;23;20021;-83
2020/12/30 04:12:11;;;;;;;5.05;4.00;;;;;;;;;;6182772;23;20029;-83
2020/12/30 04:14:38;;;;;;;5.07;3.78;;;;;;;;;;6184003;23;20471;-81
2020/12/30 04:17:04;;;;;;;4.85;3.60;;;;;;;;;;6184116;23;20029;-82
2020/12/30 04:19:30;;;;;;;6.35;4.30;;;;;;;;;;6182472;23;20867;-79
2020/12/30 04:21:56;;;;;;;6.47;4.40;;;;;;;;;;6184311;23;20021;-79
2020/12/30 04:24:22;;;;;;;6.03;3.60;;;;;;;;;;6184326;23;20071;-79
2020/12/30 04:26:48;;;;;;;5.03;3.90;;;;;;;;;;6184647;23;20096;-80
2020/12/30 04:29:14;;;;;;;5.90;3.40;;;;;;;;;;6184599;23;20491;-80
2020/12/30 04:31:40;;;;;;;4.80;3.10;;;;;;;;;;6184667;23;20021;-80
2020/12/30 04:34:07;;;;;;;4.63;3.20;;;;;;;;;;6183573;23;20025;-78
2020/12/30 04:36:33;;;;;;;4.20;3.03;;;;;;;;;;6183565;23;20029;-78
2020/12/30 04:39:00;;;;;;;6.50;3.15;;;;;;;;;;6182599;23;20021;-78
2020/12/30 04:41:33;;;;;;;4.80;3.55;;;;;;;;;;6182633;23;20021;-79
2020/12/30 04:44:00;;;;;;;6.45;3.80;;;;;;;;;;6183960;23;20062;-83
2020/12/30 04:46:27;;;;;;;5.65;3.67;;;;;;;;;;6183926;23;20025;-80
2020/12/30 04:48:55;;;;;;;5.40;2.97;;;;;;;;;;6183392;23;20032;-78
2020/12/30 04:51:21;;;;;;;5.20;3.90;;;;;;;;;;6184006;23;20409;-77
2020/12/30 04:53:49;;;;;;;4.45;2.92;;;;;;;;;;6184359;23;20365;-77
2020/12/30 04:56:15;;;;;;;5.18;3.30;;;;;;;;;;6184399;23;20021;-79
2020/12/30 04:58:42;;;;;;;7.05;3.90;;;;;;;;;;6183032;23;20404;-78
2020/12/30 05:01:09;;;;;;;5.55;3.47;;;;;;;;;;6184343;23;20080;-78
2020/12/30 05:03:38;;;;;;;4.70;3.13;;;;;;;;;;6184311;23;20027;-78
2020/12/30 05:06:05;;;;;;;6.47;3.65;;;;;;;;;;6183761;23;20508;-79
2020/12/30 05:08:32;;;;;;;6.22;3.70;;;;;;;;;;6183483;23;20021;-78
2020/12/30 05:10:59;;;;;;;5.30;3.03;;;;;;;;;;6183283;23;20433;-79
2020/12/30 05:13:25;;;;;;;4.15;3.03;;;;;;;;;;6184371;23;20025;-79
2020/12/30 05:15:51;;;;;;;5.93;3.65;;;;;;;;;;6183144;23;20035;-79
2020/12/30 05:18:21;;;;;;;6.22;3.40;;;;;;;;;;6182477;23;20032;-78
2020/12/30 05:20:47;;;;;;;5.95;3.28;;;;;;;;;;6182585;23;20025;-79
2020/12/30 05:23:13;;;;;;;5.30;3.42;;;;;;;;;;6183660;23;20017;-79
2020/12/30 05:25:40;;;;;;;6.78;3.10;;;;;;;;;;6183272;23;20108;-79
2020/12/30 05:28:08;;;;;;;4.90;3.15;;;;;;;;;;6183032;23;20027;-78
2020/12/30 05:30:34;;;;;;;4.53;3.30;;;;;;;;;;6183248;23;20385;-79
2020/12/30 05:33:01;;;;;;;7.40;3.60;;;;;;;;;;6183610;23;20017;-79
2020/12/30 05:35:28;;;;;;;4.82;2.92;;;;;;;;;;6183155;23;20020;-79
2020/12/30 05:37:55;;;;;;;4.57;3.03;;;;;;;;;;6182941;23;20024;-80
2020/12/30 05:40:22;;;;;;;4.05;3.10;;;;;;;;;;6182931;23;20511;-79
2020/12/30 05:42:50;;;;;;;4.50;3.05;;;;;;;;;;6182942;23;20028;-79
2020/12/30 05:45:20;;;;;;;7.20;3.80;;;;;;;;;;6181739;23;20049;-79
2020/12/30 05:47:46;;;;;;;;;;;;;;;;;;6184193;23;20017;-80
2020/12/30 05:50:12;;;;;;;3.70;2.88;;;;;;;;;;6181394;23;20031;-77
2020/12/30 05:52:39;;;;;;;4.53;2.70;;;;;;;;;;6183129;23;20024;-76
2020/12/30 05:55:09;;;;;;;5.25;3.13;;;;;;;;;;6183084;23;20028;-77
2020/12/30 05:57:36;;;;;;;5.05;3.13;;;;;;;;;;6183813;23;20017;-78
2020/12/30 06:00:08;;;;;;;5.97;3.15;;;;;;;;;;6181980;23;20028;-79
2020/12/30 06:02:37;;;;;;;5.70;3.00;;;;;;;;;;6184014;23;20096;-78
2020/12/30 06:05:09;;;;;;;4.72;3.10;;;;;;;;;;6183343;23;20474;-80
2020/12/30 06:07:39;;;;;;;3.50;2.30;;;;;;;;;;6183583;23;20017;-79
2020/12/30 06:10:06;;;;;;;4.72;3.08;;;;;;;;;;6182876;23;20390;-79
2020/12/30 06:12:52;;;;;;;4.55;2.97;;;;;;;;;;6183771;23;20021;-79
2020/12/30 06:15:20;;;;;;;5.18;2.88;;;;;;;;;;6132511;23;20027;-79
2020/12/30 06:17:53;;;;;;;7.03;3.28;;;;;;;;;;6181871;23;20460;-77
2020/12/30 06:20:24;;;;;;;5.50;2.88;;;;;;;;;;6182771;23;20400;-79
2020/12/30 06:22:54;;;;;;;4.18;2.63;;;;;;;;;;6181654;23;20100;-82
2020/12/30 06:25:21;;;;;;;4.82;3.00;;;;;;;;;;6180614;23;20028;-83
2020/12/30 06:27:47;;;;;;;5.30;2.67;;;;;;;;;;6181325;23;20651;-80
2020/12/30 06:30:14;;;;;;;4.75;3.17;;;;;;;;;;6182899;23;20060;-79
2020/12/30 06:32:40;;;;;;;5.13;2.83;;;;;;;;;;6182431;23;20032;-82
2020/12/30 06:35:07;;;;;;;5.53;2.92;;;;;;;;;;6182711;23;20025;-79
2020/12/30 06:37:35;;;;;;;6.55;3.08;;;;;;;;;;6181256;23;20025;-80
2020/12/30 06:40:03;;;;;;;;;;;;;;;;;;6181871;23;20021;-78
2020/12/30 06:42:30;;;;;;;5.03;2.40;;;;;;;;;;6182098;23;19926;-76
2020/12/30 06:44:56;;;;;;;3.53;2.60;;;;;;;;;;6181756;23;20025;-78
2020/12/30 06:47:42;;;;;;;5.70;3.03;;;;;;;;;;6155720;23;20545;-76
2020/12/30 06:50:14;;;;;;;4.07;2.88;;;;;;;;;;6181782;23;20017;-77
2020/12/30 06:52:40;;;;;;;4.80;2.88;;;;;;;;;;6181042;23;20031;-79
2020/12/30 06:55:09;;;;;;;6.35;3.63;;;;;;;;;;6181866;23;20021;-74
2020/12/30 06:57:45;;;;;;;4.05;3.13;;;;;;;;;;6181091;23;20029;-76
2020/12/30 07:00:27;;;;;;;4.85;3.28;;;;;;;;;;6156374;23;20029;-78
2020/12/30 07:03:12;;;;;;;4.53;3.08;;;;;;;;;;6182108;23;20023;-79
2020/12/30 07:05:38;;;;;;;4.15;2.80;;;;;;;;;;6183258;23;20087;-80
2020/12/30 07:08:04;;;;;;;10.15;3.53;;;;;;;;;;6181201;23;20109;-81
2020/12/30 07:10:31;;;;;;;6.40;3.35;;;;;;;;;;6179895;23;20063;-77
2020/12/30 07:12:57;;;;;;;4.18;3.42;;;;;;;;;;6180517;23;20032;-73
2020/12/30 07:15:23;;;;;;;5.95;3.65;;;;;;;;;;6182755;23;20085;-81
2020/12/30 07:17:50;;;;;;;4.13;3.25;;;;;;;;;;6180801;23;20406;-81
2020/12/30 07:20:22;;;;;;;8.45;3.00;;;;;;;;;;6181330;23;20105;-81
2020/12/30 07:22:49;;;;;;;5.68;3.42;;;;;;;;;;6180189;23;20056;-81
2020/12/30 07:25:16;;;;;;;4.47;2.92;;;;;;;;;;6180573;23;20021;-81
2020/12/30 07:27:42;;;;;;;5.80;3.35;;;;;;;;;;6179881;23;20504;-80
2020/12/30 07:30:08;;;;;;;7.00;4.25;;;;;;;;;;6179937;23;20021;-80
2020/12/30 07:32:39;;;;;;;8.63;3.88;;;;;;;;;;6180877;23;20021;-84
2020/12/30 07:35:07;;;;;;;5.85;4.25;;;;;;;;;;6180970;23;20067;-86
2020/12/30 07:37:33;;;;;;;6.75;4.38;;;;;;;;;;6181657;23;20021;-82
2020/12/30 07:39:59;;;;;;;6.35;3.92;;;;;;;;;;6181113;23;20059;-80
2020/12/30 07:42:27;;;;;;;8.07;4.20;;;;;;;;;;6181589;23;20055;-87
2020/12/30 07:44:54;;;;;;;10.27;4.75;;;;;;;;;;6181110;23;20326;-82
2020/12/30 07:47:21;;;;;;;8.85;5.50;;;;;;;;;;6175676;23;20017;-77
2020/12/30 07:49:47;;;;;;;13.88;6.07;;;;;;;;;;6177864;23;20025;-77
2020/12/30 07:52:13;;;;;;;15.55;6.90;;;;;;;;;;6179576;23;20021;-80
2020/12/30 07:54:39;;;;;;;13.23;7.80;;;;;;;;;;6179864;23;20103;-83
2020/12/30 07:57:05;;;;;;;14.70;8.32;;;;;;;;;;6181710;23;20020;-82
2020/12/30 07:59:32;;;;;;;18.52;8.52;;;;;;;;;;6181771;23;20917;-82
2020/12/30 08:02:03;;;;;;;14.15;6.97;;;;;;;;;;6180133;23;20717;-85
2020/12/30 08:04:31;;;;;;;17.17;8.25;;;;;;;;;;6181180;23;20017;-76
2020/12/30 08:06:58;;;;;;;22.52;8.63;;;;;;;;;;6181370;23;20028;-77
2020/12/30 08:09:29;;;;;;;11.90;6.93;;;;;;;;;;6180452;23;20108;-82
2020/12/30 08:11:59;;;;;;;16.65;8.20;;;;;;;;;;6181072;23;20068;-78
2020/12/30 08:14:29;;;;;;;17.63;8.18;;;;;;;;;;6181886;23;20020;-78
2020/12/30 08:16:55;;;;;;;;;;;;;;;;;;6180196;23;20031;-77
2020/12/30 08:19:28;;;;;;;11.05;6.20;;;;;;;;;;6181362;23;20237;-79
2020/12/30 08:21:59;;;;;;;14.60;7.30;;;;;;;;;;6181194;23;20021;-77
2020/12/30 08:24:28;;;;;;;13.05;6.50;;;;;;;;;;6181231;23;20023;-77
2020/12/30 08:26:54;;;;;;;12.07;6.18;;;;;;;;;;6180866;23;20028;-82
2020/12/30 08:29:20;;;;;;;9.50;5.93;;;;;;;;;;6177141;23;20104;-82
2020/12/30 08:31:49;;;;;;;13.10;6.60;;;;;;;;;;6178016;23;20048;-79
2020/12/30 08:34:16;;;;;;;16.60;8.18;;;;;;;;;;6178613;23;20401;-84
2020/12/30 08:36:45;;;;;;;11.32;7.05;;;;;;;;;;6180020;23;20709;-81
2020/12/30 08:39:15;;;;;;;11.27;7.03;;;;;;;;;;6178891;23;20028;-81
2020/12/30 08:41:51;;;;;;;13.20;7.03;;;;;;;;;;6180043;23;20048;-83
2020/12/30 08:44:19;;;;;;;12.82;7.45;;;;;;;;;;6179885;23;20390;-83
2020/12/30 08:46:51;;;;;;;9.68;6.40;;;;;;;;;;6180917;23;20028;-83
2020/12/30 08:49:19;;;;;;;12.23;6.65;;;;;;;;;;6180629;23;20017;-82
2020/12/30 08:51:45;;;;;;;10.98;6.15;;;;;;;;;;6180761;23;20021;-81
2020/12/30 08:54:14;;;;;;;12.70;6.78;;;;;;;;;;6177875;23;20693;-83
2020/12/30 08:56:42;;;;;;;13.77;6.05;;;;;;;;;;6177951;23;20021;-81
2020/12/30 08:59:08;;;;;;;8.25;5.78;;;;;;;;;;6180159;23;20469;-80
2020/12/30 09:01:34;;;;;;;12.45;5.63;;;;;;;;;;6179617;23;20071;-81
2020/12/30 09:04:10;;;;;;;9.40;5.75;;;;;;;;;;6181827;23;20017;-80
2020/12/30 09:06:37;;;;;;;7.45;4.65;;;;;;;;;;6181364;23;20025;-81
2020/12/30 09:09:14;;;;;;;10.15;5.90;;;;;;;;;;6181710;23;20021;-81
2020/12/30 09:11:47;;;;;;;11.55;5.50;;;;;;;;;;6181013;23;20071;-80
2020/12/30 09:14:22;;;;;;;8.60;5.15;;;;;;;;;;6181039;23;20408;-81
2020/12/30 09:16:54;;;;;;;8.18;5.38;;;;;;;;;;6181342;23;20052;-80
2020/12/30 09:19:20;;;;;;;8.88;4.95;;;;;;;;;;6182412;23;20017;-81
2020/12/30 09:21:47;;;;;;;7.85;4.38;;;;;;;;;;6183684;23;20568;-80
2020/12/30 09:24:13;;;;;;;8.70;5.25;;;;;;;;;;6182975;23;20414;-80
2020/12/30 09:26:40;;;;;;;7.72;4.05;;;;;;;;;;6182359;23;20031;-80
2020/12/30 09:29:15;;;;;;;8.23;4.50;;;;;;;;;;6180081;23;20464;-80
2020/12/30 09:31:49;;;;;;;7.30;4.25;;;;;;;;;;6179961;23;20461;-80
2020/12/30 09:34:16;;;;;;;8.05;4.70;;;;;;;;;;6181857;23;20021;-80
2020/12/30 09:36:55;;;;;;;6.50;4.63;;;;;;;;;;6181236;23;20044;-80
2020/12/30 09:39:22;;;;;;;7.68;4.90;;;;;;;;;;6181980;23;20024;-81
2020/12/30 09:41:48;;;;;;;7.80;4.78;;;;;;;;;;6180785;23;20021;-79
2020/12/30 09:44:14;;;;;;;7.25;3.63;;;;;;;;;;6179760;23;20025;-80
2020/12/30 09:46:50;;;;;;;6.72;4.05;;;;;;;;;;6179536;23;20021;-81
2020/12/30 09:49:19;;;;;;;9.50;4.00;;;;;;;;;;6180646;23;20017;-79
2020/12/30 09:51:52;;;;;;;7.00;3.85;;;;;;;;;;6178696;23;20100;-80
2020/12/30 09:54:19;;;;;;;7.70;3.88;;;;;;;;;;6180735;23;20024;-81
2020/12/30 09:56:48;;;;;;;5.72;3.95;;;;;;;;;;6180648;23;20100;-81
2020/12/30 09:59:20;;;;;;;11.47;4.17;;;;;;;;;;6180794;23;20028;-81
2020/12/30 10:01:50;;;;;;;7.78;3.67;;;;;;;;;;6180195;23;20035;-80
2020/12/30 10:04:16;;;;;;;7.05;3.80;;;;;;;;;;6180164;23;20021;-80
2020/12/30 10:06:48;;;;;;;6.97;3.50;;;;;;;;;;6180498;23;20029;-81
2020/12/30 10:09:14;;;;;;;7.20;4.00;;;;;;;;;;6180940;23;20048;-81
2020/12/30 10:11:40;;;;;;;5.88;3.10;;;;;;;;;;6180859;23;20104;-80
2020/12/30 10:14:10;;;;;;;7.50;4.00;;;;;;;;;;6180240;23;20369;-78
2020/12/30 10:16:38;;;;;;;6.97;4.18;;;;;;;;;;6180137;23;20048;-78
2020/12/30 10:19:05;;;;;;;7.72;4.30;;;;;;;;;;6179136;23;20024;-79
2020/12/30 10:21:31;;;;;;;6.43;3.95;;;;;;;;;;6179614;23;20031;-79
2020/12/30 10:24:00;;;;;;;8.60;3.88;;;;;;;;;;6181440;23;20353;-79
2020/12/30 10:26:26;;;;;;;7.03;3.85;;;;;;;;;;6180447;23;20025;-77
2020/12/30 10:28:53;;;;;;;6.28;4.13;;;;;;;;;;6180084;23;20360;-79
2020/12/30 10:31:19;;;;;;;5.45;3.45;;;;;;;;;;6179922;23;20024;-79
2020/12/30 10:33:46;;;;;;;7.95;3.70;;;;;;;;;;6179591;23;20025;-79
2020/12/30 10:36:13;;;;;;;6.93;4.05;;;;;;;;;;6180556;23;20104;-80
2020/12/30 10:38:39;;;;;;;11.60;5.38;;;;;;;;;;6182125;23;20025;-83
2020/12/30 10:41:05;;;;;;;6.70;4.15;;;;;;;;;;6179787;23;20025;-82
2020/12/30 10:43:31;;;;;;;6.85;3.67;;;;;;;;;;6178138;23;20028;-83
2020/12/30 10:45:57;;;;;;;7.72;4.18;;;;;;;;;;6181001;23;20092;-82
2020/12/30 10:48:23;;;;;;;9.15;3.85;;;;;;;;;;6180259;23;20095;-83
2020/12/30 10:50:49;;;;;;;6.10;3.60;;;;;;;;;;6179915;23;20021;-83
2020/12/30 10:53:15;;;;;;;6.43;3.60;;;;;;;;;;6181340;23;20032;-83
2020/12/30 10:55:42;;;;;;;6.95;3.50;;;;;;;;;;6180574;23;20025;-82
2020/12/30 10:58:08;;;;;;;7.15;3.13;;;;;;;;;;6182158;23;20512;-83
2020/12/30 11:00:35;;;;;;;6.60;3.35;;;;;;;;;;6178359;23;20465;-83
2020/12/30 11:03:01;;;;;;;7.45;3.78;;;;;;;;;;6180162;23;20021;-83
2020/12/30 11:05:27;;;;;;;5.85;3.97;;;;;;;;;;6180138;23;20080;-80
2020/12/30 11:07:53;;;;;;;6.38;3.83;;;;;;;;;;6181931;23;20096;-82
2020/12/30 11:10:22;;;;;;;7.10;4.13;;;;;;;;;;6179602;23;20021;-82
2020/12/30 11:12:48;;;;;;;7.77;3.87;;;;;;;;;;6179756;23;20017;-81
2020/12/30 11:15:14;;;;;;;5.32;3.53;;;;;;;;;;6179370;23;20281;-81
2020/12/30 11:17:40;;;;;;;6.68;3.33;;;;;;;;;;6179961;23;20017;-81
2020/12/30 11:20:07;;;;;;;5.78;3.75;;;;;;;;;;6178570;23;20478;-80
2020/12/30 11:22:33;;;;;;;6.78;3.58;;;;;;;;;;6180474;23;20035;-81
2020/12/30 11:25:00;;;;;;;7.30;3.75;;;;;;;;;;6181100;23;20044;-82
2020/12/30 11:27:26;;;;;;;5.38;3.60;;;;;;;;;;6180635;23;20023;-80
2020/12/30 11:29:52;;;;;;;5.60;3.78;;;;;;;;;;6181180;23;20025;-82
2020/12/30 11:32:18;;;;;;;5.65;3.85;;;;;;;;;;6180767;23;20021;-82
2020/12/30 11:34:44;;;;;;;6.88;3.28;;;;;;;;;;6177764;23;20043;-82
2020/12/30 11:37:10;;;;;;;5.65;3.35;;;;;;;;;;6179549;23;20476;-81
2020/12/30 11:39:36;;;;;;;8.10;4.20;;;;;;;;;;6180407;23;20108;-81
2020/12/30 11:42:02;;;;;;;5.00;3.22;;;;;;;;;;6178905;23;20511;-81
2020/12/30 11:44:29;;;;;;;6.95;3.67;;;;;;;;;;6180426;23;20024;-81
2020/12/30 11:46:55;;;;;;;7.07;3.80;;;;;;;;;;6180818;23;20027;-81
2020/12/30 11:49:21;;;;;;;7.35;3.78;;;;;;;;;;6179453;23;20502;-81
2020/12/30 11:51:47;;;;;;;10.30;4.35;;;;;;;;;;6179551;23;20330;-81
2020/12/30 11:54:14;;;;;;;8.20;4.30;;;;;;;;;;6179591;23;20032;-82
2020/12/30 11:56:40;;;;;;;7.47;4.95;;;;;;;;;;6179127;23;20063;-82
2020/12/30 11:59:06;;;;;;;10.52;5.30;;;;;;;;;;6179756;23;20449;-82
2020/12/30 12:01:33;;;;;;;8.10;4.88;;;;;;;;;;6178406;23;20204;-81
2020/12/30 12:03:59;;;;;;;8.13;5.25;;;;;;;;;;6177560;23;20100;-81
2020/12/30 12:06:27;;;;;;;7.63;4.68;;;;;;;;;;6180292;23;20023;-80
2020/12/30 12:08:53;;;;;;;10.57;5.53;;;;;;;;;;6178974;23;20025;-81
2020/12/30 12:11:20;;;;;;;9.32;5.53;;;;;;;;;;6178110;23;20104;-82
2020/12/30 12:13:46;;;;;;;8.85;5.22;;;;;;;;;;6178311;23;20029;-81
2020/12/30 12:16:13;;;;;;;9.38;5.07;;;;;;;;;;6179875;23;20056;-81
2020/12/30 12:18:39;;;;;;;9.20;4.80;;;;;;;;;;6179743;23;20498;-82
2020/12/30 12:21:07;;;;;;;8.35;5.18;;;;;;;;;;6178966;23;20090;-81
2020/12/30 12:23:33;;;;;;;10.13;5.55;;;;;;;;;;6179133;23;20049;-82
2020/12/30 12:25:59;;;;;;;11.27;5.80;;;;;;;;;;6179182;23;20025;-82
2020/12/30 12:28:54;;;;;;;9.50;5.38;;;;;;;;;;6179966;23;20028;-81
2020/12/30 12:31:20;;;;;;;9.65;5.22;;;;;;;;;;6172672;23;20465;-81
2020/12/30 12:33:46;;;;;;;7.00;4.80;;;;;;;;;;6179987;23;20160;-80
2020/12/30 12:36:13;;;;;;;8.63;5.57;;;;;;;;;;6181778;23;20031;-81
2020/12/30 12:38:40;;;;;;;7.75;4.25;;;;;;;;;;6182120;23;20017;-82
2020/12/30 12:41:06;;;;;;;7.47;5.30;;;;;;;;;;6154892;23;20025;-83
2020/12/30 12:43:33;;;;;;;8.35;4.90;;;;;;;;;;6181253;23;20378;-83
2020/12/30 12:46:10;;;;;;;7.93;4.68;;;;;;;;;;6182489;23;20021;-82
2020/12/30 12:48:36;;;;;;;9.82;4.93;;;;;;;;;;6179484;23;20023;-82
2020/12/30 12:51:02;;;;;;;8.35;5.88;;;;;;;;;;6180787;23;20124;-82
2020/12/30 12:53:29;;;;;;;5.50;4.10;;;;;;;;;;6181586;23;20025;-83
2020/12/30 12:55:55;;;;;;;10.73;4.72;;;;;;;;;;6181199;23;20532;-83
2020/12/30 12:58:21;;;;;;;13.15;5.28;;;;;;;;;;6180058;23;20100;-82
2020/12/30 13:00:47;;;;;;;7.35;5.07;;;;;;;;;;6181150;23;20797;-83
2020/12/30 13:03:13;;;;;;;9.18;5.03;;;;;;;;;;6181240;23;20025;-83
2020/12/30 13:05:42;;;;;;;10.23;5.55;;;;;;;;;;6180918;23;20021;-83
2020/12/30 13:08:09;;;;;;;9.90;4.90;;;;;;;;;;6182766;23;20445;-82
2020/12/30 13:10:36;;;;;;;8.35;4.53;;;;;;;;;;6181839;23;20023;-82
2020/12/30 13:13:02;;;;;;;7.82;5.15;;;;;;;;;;6181581;23;20450;-83
2020/12/30 13:15:28;;;;;;;9.52;5.45;;;;;;;;;;6179966;23;20021;-82
2020/12/30 13:17:54;;;;;;;10.90;5.10;;;;;;;;;;6178764;23;20096;-83
2020/12/30 13:20:20;;;;;;;9.70;4.93;;;;;;;;;;6183409;23;20096;-82
2020/12/30 13:22:46;;;;;;;6.63;4.10;;;;;;;;;;6182330;23;20447;-83
2020/12/30 13:25:12;;;;;;;8.82;4.82;;;;;;;;;;6181829;23;20025;-83
2020/12/30 13:27:39;;;;;;;11.73;5.20;;;;;;;;;;6179796;23;20033;-83
2020/12/30 13:30:05;;;;;;;10.13;5.03;;;;;;;;;;6179909;23;20021;-82
2020/12/30 13:32:31;;;;;;;10.52;6.18;;;;;;;;;;6181951;23;20028;-83
2020/12/30 13:34:57;;;;;;;9.10;5.03;;;;;;;;;;6181655;23;20025;-83
2020/12/30 13:37:23;;;;;;;8.63;4.55;;;;;;;;;;6181539;23;20132;-82
2020/12/30 13:39:49;;;;;;;6.95;5.20;;;;;;;;;;6182240;23;20687;-83
2020/12/30 13:42:15;;;;;;;11.45;5.32;;;;;;;;;;6179484;23;20017;-82
2020/12/30 13:44:42;;;;;;;8.80;5.43;;;;;;;;;;6180651;23;20023;-83
2020/12/30 13:47:08;;;;;;;9.45;4.30;;;;;;;;;;6179614;23;20060;-82
2020/12/30 13:49:34;;;;;;;6.70;4.13;;;;;;;;;;6181835;23;20021;-83
2020/12/30 13:52:00;;;;;;;8.52;4.70;;;;;;;;;;6181037;23;20027;-81
2020/12/30 13:54:26;;;;;;;6.88;4.45;;;;;;;;;;6180941;23;20087;-83
2020/12/30 13:56:52;;;;;;;7.97;4.53;;;;;;;;;;6180226;23;20100;-83
2020/12/30 13:59:18;;;;;;;8.63;4.88;;;;;;;;;;6181552;23;20017;-84
2020/12/30 14:01:44;;;;;;;16.13;6.00;;;;;;;;;;6182110;23;20409;-83
2020/12/30 14:04:11;;;;;;;7.97;4.72;;;;;;;;;;6181632;23;20021;-82
2020/12/30 14:06:37;;;;;;;8.80;4.13;;;;;;;;;;6181209;23;20028;-84
2020/12/30 14:09:03;;;;;;;10.73;4.50;;;;;;;;;;6180181;23;20100;-82
2020/12/30 14:11:29;;;;;;;7.68;4.50;;;;;;;;;;6181993;23;20027;-82
2020/12/30 14:13:56;;;;;;;8.82;5.00;;;;;;;;;;6180636;23;20092;-85
2020/12/30 14:16:22;;;;;;;8.35;4.32;;;;;;;;;;6182486;23;20025;-82
2020/12/30 14:18:48;;;;;;;7.63;4.28;;;;;;;;;;6182509;23;20414;-80
2020/12/30 14:21:15;;;;;;;7.70;4.47;;;;;;;;;;6182413;23;20024;-83
2020/12/30 14:23:41;;;;;;;7.75;3.83;;;;;;;;;;6181672;23;20027;-81
2020/12/30 14:26:09;;;;;;;7.25;4.60;;;;;;;;;;6181741;23;20511;-83
2020/12/30 14:28:36;;;;;;;8.23;5.10;;;;;;;;;;6182298;23;20104;-83
2020/12/30 14:31:02;;;;;;;11.70;4.50;;;;;;;;;;6181356;23;20035;-84
2020/12/30 14:33:39;;;;;;;5.63;3.88;;;;;;;;;;6181719;23;20457;-83
2020/12/30 14:36:06;;;;;;;8.60;4.55;;;;;;;;;;6182469;23;20453;-84
2020/12/30 14:38:32;;;;;;;7.72;4.25;;;;;;;;;;6181749;23;20024;-84
2020/12/30 14:40:58;;;;;;;6.85;4.03;;;;;;;;;;6181584;23;20025;-83